sensor_id;sensor_type;location;lat;lon;timestamp;P1;durP1;ratioP1;P2;durP2;ratioP2
33160;SDS011;19522;45.656;11.302;2022-11-15T00:00:40;8.73;;;6.45;;
33160;SDS011;19522;45.656;11.302;2022-11-15T00:03:05;11.35;;;6.38;;
33160;SDS011;19522;45.656;11.302;2022-11-15T00:05:34;7.80;;;5.65;;
33160;SDS011;19522;45.656;11.302;2022-11-15T00:08:00;8.82;;;7.10;;
33160;SDS011;19522;45.656;11.302;2022-11-15T00:10:29;9.80;;;7.50;;
33160;SDS011;19522;45.656;11.302;2022-11-15T00:12:54;9.15;;;6.53;;
33160;SDS011;19522;45.656;11.302;2022-11-15T00:15:19;8.55;;;6.50;;
33160;SDS011;19522;45.656;11.302;2022-11-15T00:17:48;8.40;;;5.93;;
33160;SDS011;19522;45.656;11.302;2022-11-15T00:20:14;8.05;;;6.18;;
33160;SDS011;19522;45.656;11.302;2022-11-15T00:22:40;8.00;;;6.15;;
33160;SDS011;19522;45.656;11.302;2022-11-15T00:25:05;8.15;;;5.68;;
33160;SDS011;19522;45.656;11.302;2022-11-15T00:27:34;6.88;;;4.90;;
33160;SDS011;19522;45.656;11.302;2022-11-15T00:30:00;11.05;;;5.45;;
33160;SDS011;19522;45.656;11.302;2022-11-15T00:32:25;10.50;;;5.75;;
33160;SDS011;19522;45.656;11.302;2022-11-15T00:34:51;8.77;;;5.55;;
33160;SDS011;19522;45.656;11.302;2022-11-15T00:37:16;11.85;;;6.40;;
33160;SDS011;19522;45.656;11.302;2022-11-15T00:39:42;7.85;;;5.40;;
33160;SDS011;19522;45.656;11.302;2022-11-15T00:42:07;6.45;;;5.22;;
33160;SDS011;19522;45.656;11.302;2022-11-15T00:44:33;9.07;;;5.22;;
33160;SDS011;19522;45.656;11.302;2022-11-15T00:46:58;6.93;;;4.97;;
33160;SDS011;19522;45.656;11.302;2022-11-15T00:49:24;8.43;;;5.85;;
33160;SDS011;19522;45.656;11.302;2022-11-15T00:51:49;7.07;;;5.38;;
33160;SDS011;19522;45.656;11.302;2022-11-15T00:54:15;8.65;;;6.38;;
33160;SDS011;19522;45.656;11.302;2022-11-15T00:56:40;9.48;;;5.90;;
33160;SDS011;19522;45.656;11.302;2022-11-15T00:59:06;7.95;;;5.60;;
33160;SDS011;19522;45.656;11.302;2022-11-15T01:01:31;8.48;;;5.40;;
33160;SDS011;19522;45.656;11.302;2022-11-15T01:03:57;6.22;;;4.88;;
33160;SDS011;19522;45.656;11.302;2022-11-15T01:06:22;10.55;;;6.55;;
33160;SDS011;19522;45.656;11.302;2022-11-15T01:08:48;7.90;;;5.38;;
33160;SDS011;19522;45.656;11.302;2022-11-15T01:11:13;6.35;;;4.80;;
33160;SDS011;19522;45.656;11.302;2022-11-15T01:13:39;6.93;;;5.05;;
33160;SDS011;19522;45.656;11.302;2022-11-15T01:18:35;6.47;;;4.65;;
33160;SDS011;19522;45.656;11.302;2022-11-15T01:21:05;6.57;;;4.63;;
33160;SDS011;19522;45.656;11.302;2022-11-15T01:23:34;7.10;;;4.90;;
33160;SDS011;19522;45.656;11.302;2022-11-15T01:26:00;6.50;;;4.78;;
33160;SDS011;19522;45.656;11.302;2022-11-15T01:28:37;6.63;;;4.90;;
33160;SDS011;19522;45.656;11.302;2022-11-15T01:31:05;8.48;;;5.15;;
33160;SDS011;19522;45.656;11.302;2022-11-15T01:33:37;6.30;;;4.70;;
33160;SDS011;19522;45.656;11.302;2022-11-15T01:36:03;6.25;;;4.68;;
33160;SDS011;19522;45.656;11.302;2022-11-15T01:38:30;7.57;;;4.70;;
33160;SDS011;19522;45.656;11.302;2022-11-15T01:40:55;6.38;;;4.50;;
33160;SDS011;19522;45.656;11.302;2022-11-15T01:43:22;7.38;;;4.80;;
33160;SDS011;19522;45.656;11.302;2022-11-15T01:45:57;6.15;;;4.05;;
33160;SDS011;19522;45.656;11.302;2022-11-15T01:48:34;6.68;;;4.25;;
33160;SDS011;19522;45.656;11.302;2022-11-15T01:51:00;5.60;;;4.05;;
33160;SDS011;19522;45.656;11.302;2022-11-15T01:53:29;5.30;;;3.78;;
33160;SDS011;19522;45.656;11.302;2022-11-15T01:55:58;4.68;;;3.75;;
33160;SDS011;19522;45.656;11.302;2022-11-15T01:58:29;4.78;;;3.55;;
33160;SDS011;19522;45.656;11.302;2022-11-15T02:00:54;6.20;;;4.20;;
33160;SDS011;19522;45.656;11.302;2022-11-15T02:03:20;5.40;;;3.45;;
33160;SDS011;19522;45.656;11.302;2022-11-15T02:05:50;6.00;;;3.60;;
33160;SDS011;19522;45.656;11.302;2022-11-15T02:08:16;4.30;;;3.63;;
33160;SDS011;19522;45.656;11.302;2022-11-15T02:10:45;4.43;;;3.28;;
33160;SDS011;19522;45.656;11.302;2022-11-15T02:13:13;5.65;;;3.85;;
33160;SDS011;19522;45.656;11.302;2022-11-15T02:15:55;5.30;;;3.75;;
33160;SDS011;19522;45.656;11.302;2022-11-15T02:18:35;8.93;;;4.10;;
33160;SDS011;19522;45.656;11.302;2022-11-15T02:21:11;5.45;;;3.80;;
33160;SDS011;19522;45.656;11.302;2022-11-15T02:32:18;5.03;;;3.15;;
33160;SDS011;19522;45.656;11.302;2022-11-15T02:35:02;4.43;;;3.15;;
33160;SDS011;19522;45.656;11.302;2022-11-15T02:37:48;4.13;;;3.03;;
33160;SDS011;19522;45.656;11.302;2022-11-15T02:46:38;5.28;;;3.95;;
33160;SDS011;19522;45.656;11.302;2022-11-15T02:49:30;4.03;;;3.22;;
33160;SDS011;19522;45.656;11.302;2022-11-15T02:51:58;6.00;;;2.72;;
33160;SDS011;19522;45.656;11.302;2022-11-15T02:54:29;8.23;;;3.78;;
33160;SDS011;19522;45.656;11.302;2022-11-15T02:57:06;4.72;;;3.35;;
33160;SDS011;19522;45.656;11.302;2022-11-15T03:02:17;4.25;;;3.00;;
33160;SDS011;19522;45.656;11.302;2022-11-15T03:07:30;5.05;;;3.00;;
33160;SDS011;19522;45.656;11.302;2022-11-15T03:10:06;6.05;;;3.25;;
33160;SDS011;19522;45.656;11.302;2022-11-15T03:15:06;2.85;;;2.47;;
33160;SDS011;19522;45.656;11.302;2022-11-15T03:18:01;5.45;;;2.75;;
33160;SDS011;19522;45.656;11.302;2022-11-15T03:20:29;4.70;;;3.17;;
33160;SDS011;19522;45.656;11.302;2022-11-15T03:22:59;4.55;;;2.95;;
33160;SDS011;19522;45.656;11.302;2022-11-15T03:25:29;3.58;;;2.42;;
33160;SDS011;19522;45.656;11.302;2022-11-15T03:27:59;4.38;;;2.97;;
33160;SDS011;19522;45.656;11.302;2022-11-15T03:30:28;4.13;;;2.90;;
33160;SDS011;19522;45.656;11.302;2022-11-15T03:32:56;4.07;;;2.80;;
33160;SDS011;19522;45.656;11.302;2022-11-15T03:35:24;4.00;;;3.13;;
33160;SDS011;19522;45.656;11.302;2022-11-15T03:38:12;4.05;;;3.10;;
33160;SDS011;19522;45.656;11.302;2022-11-15T03:40:49;5.32;;;3.30;;
33160;SDS011;19522;45.656;11.302;2022-11-15T03:43:36;3.28;;;2.67;;
33160;SDS011;19522;45.656;11.302;2022-11-15T03:46:13;4.38;;;3.25;;
33160;SDS011;19522;45.656;11.302;2022-11-15T03:48:46;4.53;;;3.55;;
33160;SDS011;19522;45.656;11.302;2022-11-15T03:51:17;3.83;;;2.78;;
33160;SDS011;19522;45.656;11.302;2022-11-15T03:53:43;3.75;;;2.70;;
33160;SDS011;19522;45.656;11.302;2022-11-15T03:56:11;4.05;;;3.05;;
33160;SDS011;19522;45.656;11.302;2022-11-15T03:58:37;3.42;;;2.92;;
33160;SDS011;19522;45.656;11.302;2022-11-15T04:01:02;5.47;;;3.58;;
33160;SDS011;19522;45.656;11.302;2022-11-15T04:03:28;3.90;;;2.70;;
33160;SDS011;19522;45.656;11.302;2022-11-15T04:05:54;8.35;;;3.40;;
33160;SDS011;19522;45.656;11.302;2022-11-15T04:08:19;3.92;;;3.00;;
33160;SDS011;19522;45.656;11.302;2022-11-15T04:10:45;3.97;;;2.95;;
33160;SDS011;19522;45.656;11.302;2022-11-15T04:13:13;5.75;;;3.60;;
33160;SDS011;19522;45.656;11.302;2022-11-15T04:15:38;5.07;;;3.63;;
33160;SDS011;19522;45.656;11.302;2022-11-15T04:18:04;4.57;;;3.20;;
33160;SDS011;19522;45.656;11.302;2022-11-15T04:20:30;5.22;;;3.22;;
33160;SDS011;19522;45.656;11.302;2022-11-15T04:23:18;4.47;;;3.00;;
33160;SDS011;19522;45.656;11.302;2022-11-15T04:26:05;4.55;;;3.00;;
33160;SDS011;19522;45.656;11.302;2022-11-15T04:28:33;5.75;;;3.30;;
33160;SDS011;19522;45.656;11.302;2022-11-15T04:30:59;4.78;;;3.08;;
33160;SDS011;19522;45.656;11.302;2022-11-15T04:33:24;4.15;;;3.08;;
33160;SDS011;19522;45.656;11.302;2022-11-15T04:35:50;5.10;;;3.25;;
33160;SDS011;19522;45.656;11.302;2022-11-15T04:38:34;4.07;;;2.83;;
33160;SDS011;19522;45.656;11.302;2022-11-15T04:41:01;4.70;;;3.22;;
33160;SDS011;19522;45.656;11.302;2022-11-15T04:43:27;5.38;;;3.45;;
33160;SDS011;19522;45.656;11.302;2022-11-15T04:45:53;4.07;;;3.20;;
33160;SDS011;19522;45.656;11.302;2022-11-15T04:48:19;3.83;;;2.65;;
33160;SDS011;19522;45.656;11.302;2022-11-15T04:50:44;3.97;;;2.95;;
33160;SDS011;19522;45.656;11.302;2022-11-15T04:53:12;4.25;;;3.03;;
33160;SDS011;19522;45.656;11.302;2022-11-15T04:55:37;5.53;;;2.92;;
33160;SDS011;19522;45.656;11.302;2022-11-15T04:58:03;5.05;;;2.80;;
33160;SDS011;19522;45.656;11.302;2022-11-15T05:00:29;3.60;;;2.50;;
33160;SDS011;19522;45.656;11.302;2022-11-15T05:02:55;3.55;;;2.60;;
33160;SDS011;19522;45.656;11.302;2022-11-15T05:05:40;4.38;;;2.85;;
33160;SDS011;19522;45.656;11.302;2022-11-15T05:08:06;6.65;;;3.17;;
33160;SDS011;19522;45.656;11.302;2022-11-15T05:10:35;4.97;;;3.50;;
33160;SDS011;19522;45.656;11.302;2022-11-15T05:13:10;4.07;;;2.83;;
33160;SDS011;19522;45.656;11.302;2022-11-15T05:15:35;3.85;;;2.80;;
33160;SDS011;19522;45.656;11.302;2022-11-15T05:18:01;5.25;;;3.17;;
33160;SDS011;19522;45.656;11.302;2022-11-15T05:20:30;3.88;;;3.15;;
33160;SDS011;19522;45.656;11.302;2022-11-15T05:22:55;3.53;;;2.97;;
33160;SDS011;19522;45.656;11.302;2022-11-15T05:25:21;3.67;;;3.15;;
33160;SDS011;19522;45.656;11.302;2022-11-15T05:27:47;3.47;;;2.88;;
33160;SDS011;19522;45.656;11.302;2022-11-15T05:30:13;6.15;;;2.95;;
33160;SDS011;19522;45.656;11.302;2022-11-15T05:32:39;4.68;;;3.10;;
33160;SDS011;19522;45.656;11.302;2022-11-15T05:35:08;6.68;;;3.17;;
33160;SDS011;19522;45.656;11.302;2022-11-15T05:37:38;4.97;;;3.22;;
33160;SDS011;19522;45.656;11.302;2022-11-15T05:40:04;4.22;;;3.17;;
33160;SDS011;19522;45.656;11.302;2022-11-15T05:42:30;4.90;;;3.50;;
33160;SDS011;19522;45.656;11.302;2022-11-15T05:44:56;4.03;;;3.08;;
33160;SDS011;19522;45.656;11.302;2022-11-15T05:47:23;4.55;;;3.42;;
33160;SDS011;19522;45.656;11.302;2022-11-15T05:49:52;3.90;;;3.33;;
33160;SDS011;19522;45.656;11.302;2022-11-15T05:52:20;4.82;;;3.40;;
33160;SDS011;19522;45.656;11.302;2022-11-15T05:54:49;5.82;;;3.83;;
33160;SDS011;19522;45.656;11.302;2022-11-15T05:57:15;3.70;;;3.08;;
33160;SDS011;19522;45.656;11.302;2022-11-15T05:59:41;6.13;;;3.88;;
33160;SDS011;19522;45.656;11.302;2022-11-15T06:02:08;4.10;;;3.50;;
33160;SDS011;19522;45.656;11.302;2022-11-15T06:04:35;5.65;;;3.85;;
33160;SDS011;19522;45.656;11.302;2022-11-15T06:07:01;7.32;;;4.22;;
33160;SDS011;19522;45.656;11.302;2022-11-15T06:09:27;6.90;;;4.80;;
33160;SDS011;19522;45.656;11.302;2022-11-15T06:11:52;111.20;;;56.40;;
33160;SDS011;19522;45.656;11.302;2022-11-15T06:14:18;17.73;;;10.52;;
33160;SDS011;19522;45.656;11.302;2022-11-15T06:16:43;11.90;;;4.25;;
33160;SDS011;19522;45.656;11.302;2022-11-15T06:19:09;4.13;;;3.53;;
33160;SDS011;19522;45.656;11.302;2022-11-15T06:21:37;5.45;;;4.25;;
33160;SDS011;19522;45.656;11.302;2022-11-15T06:24:03;6.60;;;5.07;;
33160;SDS011;19522;45.656;11.302;2022-11-15T06:26:30;6.93;;;5.10;;
33160;SDS011;19522;45.656;11.302;2022-11-15T06:28:56;6.85;;;5.50;;
33160;SDS011;19522;45.656;11.302;2022-11-15T06:31:22;7.32;;;4.68;;
33160;SDS011;19522;45.656;11.302;2022-11-15T06:33:48;7.35;;;5.03;;
33160;SDS011;19522;45.656;11.302;2022-11-15T06:36:14;6.38;;;4.60;;
33160;SDS011;19522;45.656;11.302;2022-11-15T06:38:41;8.00;;;4.63;;
33160;SDS011;19522;45.656;11.302;2022-11-15T06:41:08;6.18;;;4.30;;
33160;SDS011;19522;45.656;11.302;2022-11-15T06:43:35;5.28;;;4.25;;
33160;SDS011;19522;45.656;11.302;2022-11-15T06:46:05;6.13;;;4.95;;
33160;SDS011;19522;45.656;11.302;2022-11-15T06:48:31;7.47;;;5.07;;
33160;SDS011;19522;45.656;11.302;2022-11-15T06:50:59;6.53;;;4.78;;
33160;SDS011;19522;45.656;11.302;2022-11-15T06:53:26;4.97;;;4.38;;
33160;SDS011;19522;45.656;11.302;2022-11-15T06:55:52;6.93;;;5.20;;
33160;SDS011;19522;45.656;11.302;2022-11-15T06:58:17;7.43;;;5.07;;
33160;SDS011;19522;45.656;11.302;2022-11-15T07:00:43;11.10;;;5.18;;
33160;SDS011;19522;45.656;11.302;2022-11-15T07:03:09;7.60;;;5.25;;
33160;SDS011;19522;45.656;11.302;2022-11-15T07:05:35;6.65;;;5.30;;
33160;SDS011;19522;45.656;11.302;2022-11-15T07:08:01;6.05;;;5.03;;
33160;SDS011;19522;45.656;11.302;2022-11-15T07:10:27;7.63;;;5.75;;
33160;SDS011;19522;45.656;11.302;2022-11-15T07:12:54;9.68;;;6.80;;
33160;SDS011;19522;45.656;11.302;2022-11-15T07:15:21;11.50;;;9.52;;
33160;SDS011;19522;45.656;11.302;2022-11-15T07:17:48;11.23;;;8.80;;
33160;SDS011;19522;45.656;11.302;2022-11-15T07:20:14;11.00;;;9.07;;
33160;SDS011;19522;45.656;11.302;2022-11-15T07:22:40;10.32;;;6.28;;
33160;SDS011;19522;45.656;11.302;2022-11-15T07:25:06;8.20;;;5.75;;
33160;SDS011;19522;45.656;11.302;2022-11-15T07:27:33;8.52;;;6.40;;
33160;SDS011;19522;45.656;11.302;2022-11-15T07:29:59;9.90;;;6.53;;
33160;SDS011;19522;45.656;11.302;2022-11-15T07:32:25;11.07;;;7.18;;
33160;SDS011;19522;45.656;11.302;2022-11-15T07:34:50;9.93;;;7.25;;
33160;SDS011;19522;45.656;11.302;2022-11-15T07:37:16;8.60;;;6.95;;
33160;SDS011;19522;45.656;11.302;2022-11-15T07:39:42;10.98;;;7.60;;
33160;SDS011;19522;45.656;11.302;2022-11-15T07:42:08;10.13;;;7.70;;
33160;SDS011;19522;45.656;11.302;2022-11-15T07:44:52;10.18;;;6.70;;
33160;SDS011;19522;45.656;11.302;2022-11-15T07:47:17;10.43;;;6.97;;
33160;SDS011;19522;45.656;11.302;2022-11-15T07:49:43;13.00;;;7.35;;
33160;SDS011;19522;45.656;11.302;2022-11-15T07:52:08;10.05;;;7.45;;
33160;SDS011;19522;45.656;11.302;2022-11-15T07:54:34;10.38;;;7.18;;
33160;SDS011;19522;45.656;11.302;2022-11-15T07:56:59;9.98;;;7.60;;
33160;SDS011;19522;45.656;11.302;2022-11-15T07:59:25;7.97;;;6.63;;
33160;SDS011;19522;45.656;11.302;2022-11-15T08:01:50;9.02;;;6.93;;
33160;SDS011;19522;45.656;11.302;2022-11-15T08:04:16;9.05;;;6.88;;
33160;SDS011;19522;45.656;11.302;2022-11-15T08:06:41;7.97;;;6.40;;
33160;SDS011;19522;45.656;11.302;2022-11-15T08:09:07;12.85;;;6.57;;
33160;SDS011;19522;45.656;11.302;2022-11-15T08:11:32;9.00;;;6.30;;
33160;SDS011;19522;45.656;11.302;2022-11-15T08:13:58;6.97;;;5.35;;
33160;SDS011;19522;45.656;11.302;2022-11-15T08:16:24;8.38;;;6.25;;
33160;SDS011;19522;45.656;11.302;2022-11-15T08:18:49;9.10;;;6.03;;
33160;SDS011;19522;45.656;11.302;2022-11-15T08:21:17;7.63;;;5.82;;
33160;SDS011;19522;45.656;11.302;2022-11-15T08:23:44;7.50;;;5.85;;
33160;SDS011;19522;45.656;11.302;2022-11-15T08:26:10;8.90;;;5.82;;
33160;SDS011;19522;45.656;11.302;2022-11-15T08:28:35;7.50;;;6.20;;
33160;SDS011;19522;45.656;11.302;2022-11-15T08:31:02;8.80;;;6.70;;
33160;SDS011;19522;45.656;11.302;2022-11-15T08:33:28;9.70;;;6.45;;
33160;SDS011;19522;45.656;11.302;2022-11-15T08:35:56;10.65;;;8.18;;
33160;SDS011;19522;45.656;11.302;2022-11-15T08:38:22;12.07;;;8.98;;
33160;SDS011;19522;45.656;11.302;2022-11-15T08:40:48;13.13;;;8.88;;
33160;SDS011;19522;45.656;11.302;2022-11-15T08:43:15;13.77;;;9.30;;
33160;SDS011;19522;45.656;11.302;2022-11-15T08:45:41;12.25;;;8.93;;
33160;SDS011;19522;45.656;11.302;2022-11-15T08:48:06;9.45;;;7.68;;
33160;SDS011;19522;45.656;11.302;2022-11-15T08:50:32;9.38;;;7.75;;
33160;SDS011;19522;45.656;11.302;2022-11-15T08:52:57;9.00;;;7.43;;
33160;SDS011;19522;45.656;11.302;2022-11-15T08:55:29;8.88;;;6.88;;
33160;SDS011;19522;45.656;11.302;2022-11-15T08:57:56;7.65;;;6.60;;
33160;SDS011;19522;45.656;11.302;2022-11-15T09:00:22;24.27;;;15.00;;
33160;SDS011;19522;45.656;11.302;2022-11-15T09:02:48;19.98;;;12.15;;
33160;SDS011;19522;45.656;11.302;2022-11-15T09:05:13;17.73;;;11.23;;
33160;SDS011;19522;45.656;11.302;2022-11-15T09:07:40;15.45;;;10.38;;
33160;SDS011;19522;45.656;11.302;2022-11-15T09:10:09;21.98;;;14.65;;
33160;SDS011;19522;45.656;11.302;2022-11-15T09:12:34;24.58;;;15.98;;
33160;SDS011;19522;45.656;11.302;2022-11-15T09:15:00;20.48;;;14.77;;
33160;SDS011;19522;45.656;11.302;2022-11-15T09:17:28;18.30;;;12.52;;
33160;SDS011;19522;45.656;11.302;2022-11-15T09:19:54;12.13;;;8.80;;
33160;SDS011;19522;45.656;11.302;2022-11-15T09:22:19;11.07;;;7.63;;
33160;SDS011;19522;45.656;11.302;2022-11-15T09:24:45;9.80;;;7.63;;
33160;SDS011;19522;45.656;11.302;2022-11-15T09:27:13;9.35;;;6.88;;
33160;SDS011;19522;45.656;11.302;2022-11-15T09:29:39;11.35;;;7.85;;
33160;SDS011;19522;45.656;11.302;2022-11-15T09:32:05;8.77;;;6.95;;
33160;SDS011;19522;45.656;11.302;2022-11-15T09:34:30;9.90;;;7.78;;
33160;SDS011;19522;45.656;11.302;2022-11-15T09:36:56;9.88;;;7.20;;
33160;SDS011;19522;45.656;11.302;2022-11-15T09:39:21;9.77;;;6.60;;
33160;SDS011;19522;45.656;11.302;2022-11-15T09:41:52;11.18;;;7.50;;
33160;SDS011;19522;45.656;11.302;2022-11-15T09:47:46;9.90;;;7.57;;
33160;SDS011;19522;45.656;11.302;2022-11-15T09:50:41;11.27;;;9.13;;
33160;SDS011;19522;45.656;11.302;2022-11-15T09:53:12;15.60;;;11.30;;
33160;SDS011;19522;45.656;11.302;2022-11-15T09:55:47;12.00;;;9.15;;
33160;SDS011;19522;45.656;11.302;2022-11-15T10:01:10;10.90;;;9.43;;
33160;SDS011;19522;45.656;11.302;2022-11-15T10:06:15;11.07;;;8.48;;
33160;SDS011;19522;45.656;11.302;2022-11-15T10:11:16;9.90;;;7.53;;
33160;SDS011;19522;45.656;11.302;2022-11-15T10:13:54;11.45;;;7.60;;
33160;SDS011;19522;45.656;11.302;2022-11-15T10:19:16;10.07;;;7.47;;
33160;SDS011;19522;45.656;11.302;2022-11-15T10:22:49;9.90;;;6.45;;
33160;SDS011;19522;45.656;11.302;2022-11-15T10:24:45;8.90;;;6.43;;
33160;SDS011;19522;45.656;11.302;2022-11-15T10:27:12;7.15;;;5.50;;
33160;SDS011;19522;45.656;11.302;2022-11-15T10:29:47;7.68;;;5.70;;
33160;SDS011;19522;45.656;11.302;2022-11-15T10:32:16;8.20;;;5.95;;
33160;SDS011;19522;45.656;11.302;2022-11-15T10:34:46;17.08;;;11.68;;
33160;SDS011;19522;45.656;11.302;2022-11-15T10:37:12;8.75;;;6.00;;
33160;SDS011;19522;45.656;11.302;2022-11-15T10:39:41;9.35;;;6.18;;
33160;SDS011;19522;45.656;11.302;2022-11-15T10:42:17;7.13;;;5.68;;
33160;SDS011;19522;45.656;11.302;2022-11-15T10:44:53;6.68;;;5.47;;
33160;SDS011;19522;45.656;11.302;2022-11-15T10:52:51;8.00;;;6.40;;
33160;SDS011;19522;45.656;11.302;2022-11-15T10:57:47;9.30;;;6.35;;
33160;SDS011;19522;45.656;11.302;2022-11-15T11:05:26;7.13;;;5.50;;
33160;SDS011;19522;45.656;11.302;2022-11-15T11:08:02;8.05;;;5.85;;
33160;SDS011;19522;45.656;11.302;2022-11-15T11:10:57;8.00;;;5.60;;
33160;SDS011;19522;45.656;11.302;2022-11-15T11:13:28;6.88;;;5.68;;
33160;SDS011;19522;45.656;11.302;2022-11-15T11:16:11;7.75;;;5.57;;
33160;SDS011;19522;45.656;11.302;2022-11-15T11:21:49;10.73;;;6.68;;
33160;SDS011;19522;45.656;11.302;2022-11-15T11:30:34;4.83;;;3.90;;
33160;SDS011;19522;45.656;11.302;2022-11-15T11:39:02;8.15;;;6.30;;
33160;SDS011;19522;45.656;11.302;2022-11-15T11:41:56;10.15;;;6.20;;
33160;SDS011;19522;45.656;11.302;2022-11-15T11:44:55;10.63;;;7.10;;
33160;SDS011;19522;45.656;11.302;2022-11-15T11:47:31;9.32;;;6.75;;
33160;SDS011;19522;45.656;11.302;2022-11-15T11:50:15;10.52;;;7.28;;
33160;SDS011;19522;45.656;11.302;2022-11-15T12:00:31;9.75;;;6.68;;
33160;SDS011;19522;45.656;11.302;2022-11-15T12:05:54;8.30;;;5.97;;
33160;SDS011;19522;45.656;11.302;2022-11-15T12:11:17;6.95;;;5.47;;
33160;SDS011;19522;45.656;11.302;2022-11-15T12:13:49;8.93;;;5.53;;
33160;SDS011;19522;45.656;11.302;2022-11-15T12:18:58;8.73;;;5.15;;
33160;SDS011;19522;45.656;11.302;2022-11-15T12:25:20;6.30;;;5.03;;
33160;SDS011;19522;45.656;11.302;2022-11-15T12:29:49;9.07;;;6.20;;
33160;SDS011;19522;45.656;11.302;2022-11-15T12:32:24;7.60;;;5.53;;
33160;SDS011;19522;45.656;11.302;2022-11-15T12:34:50;7.07;;;5.75;;
33160;SDS011;19522;45.656;11.302;2022-11-15T12:40:19;6.93;;;5.10;;
33160;SDS011;19522;45.656;11.302;2022-11-15T12:45:42;7.00;;;5.72;;
33160;SDS011;19522;45.656;11.302;2022-11-15T12:50:59;6.90;;;5.47;;
33160;SDS011;19522;45.656;11.302;2022-11-15T12:58:43;8.18;;;6.28;;
33160;SDS011;19522;45.656;11.302;2022-11-15T13:12:07;6.82;;;5.40;;
33160;SDS011;19522;45.656;11.302;2022-11-15T13:14:58;6.53;;;5.32;;
33160;SDS011;19522;45.656;11.302;2022-11-15T13:17:52;6.70;;;5.00;;
33160;SDS011;19522;45.656;11.302;2022-11-15T13:20:24;5.05;;;3.95;;
33160;SDS011;19522;45.656;11.302;2022-11-15T13:27:52;6.75;;;4.70;;
33160;SDS011;19522;45.656;11.302;2022-11-15T13:30:21;7.70;;;5.30;;
33160;SDS011;19522;45.656;11.302;2022-11-15T13:32:48;6.97;;;5.50;;
33160;SDS011;19522;45.656;11.302;2022-11-15T13:35:23;6.82;;;5.72;;
33160;SDS011;19522;45.656;11.302;2022-11-15T13:37:51;8.68;;;6.47;;
33160;SDS011;19522;45.656;11.302;2022-11-15T13:40:25;7.28;;;5.95;;
33160;SDS011;19522;45.656;11.302;2022-11-15T13:42:58;8.30;;;7.07;;
33160;SDS011;19522;45.656;11.302;2022-11-15T13:45:24;10.95;;;7.78;;
33160;SDS011;19522;45.656;11.302;2022-11-15T13:47:53;9.50;;;7.55;;
33160;SDS011;19522;45.656;11.302;2022-11-15T13:50:21;12.27;;;8.15;;
33160;SDS011;19522;45.656;11.302;2022-11-15T13:52:51;12.30;;;8.40;;
33160;SDS011;19522;45.656;11.302;2022-11-15T13:55:19;11.18;;;8.30;;
33160;SDS011;19522;45.656;11.302;2022-11-15T13:57:53;14.95;;;9.20;;
33160;SDS011;19522;45.656;11.302;2022-11-15T14:03:16;12.77;;;9.05;;
33160;SDS011;19522;45.656;11.302;2022-11-15T14:08:32;14.60;;;9.48;;
33160;SDS011;19522;45.656;11.302;2022-11-15T14:14:04;11.10;;;8.43;;
33160;SDS011;19522;45.656;11.302;2022-11-15T14:16:34;15.30;;;9.85;;
33160;SDS011;19522;45.656;11.302;2022-11-15T14:19:04;11.95;;;9.63;;
33160;SDS011;19522;45.656;11.302;2022-11-15T14:21:31;11.00;;;8.30;;
33160;SDS011;19522;45.656;11.302;2022-11-15T14:27:14;10.40;;;8.52;;
33160;SDS011;19522;45.656;11.302;2022-11-15T14:29:45;11.25;;;9.05;;
33160;SDS011;19522;45.656;11.302;2022-11-15T14:32:17;11.98;;;8.45;;
33160;SDS011;19522;45.656;11.302;2022-11-15T14:34:46;12.93;;;9.02;;
33160;SDS011;19522;45.656;11.302;2022-11-15T14:37:20;10.82;;;8.45;;
33160;SDS011;19522;45.656;11.302;2022-11-15T14:40:03;10.23;;;8.55;;
33160;SDS011;19522;45.656;11.302;2022-11-15T14:42:31;11.82;;;7.90;;
33160;SDS011;19522;45.656;11.302;2022-11-15T14:44:57;11.30;;;9.85;;
33160;SDS011;19522;45.656;11.302;2022-11-15T14:47:23;14.00;;;9.40;;
33160;SDS011;19522;45.656;11.302;2022-11-15T14:49:48;10.45;;;8.52;;
33160;SDS011;19522;45.656;11.302;2022-11-15T14:52:27;12.93;;;9.75;;
33160;SDS011;19522;45.656;11.302;2022-11-15T14:54:55;12.05;;;9.95;;
33160;SDS011;19522;45.656;11.302;2022-11-15T14:57:22;10.93;;;8.98;;
33160;SDS011;19522;45.656;11.302;2022-11-15T14:59:48;11.25;;;9.82;;
33160;SDS011;19522;45.656;11.302;2022-11-15T15:02:21;11.48;;;9.70;;
33160;SDS011;19522;45.656;11.302;2022-11-15T15:04:52;10.77;;;9.52;;
33160;SDS011;19522;45.656;11.302;2022-11-15T15:07:18;10.65;;;9.05;;
33160;SDS011;19522;45.656;11.302;2022-11-15T15:09:44;10.05;;;8.40;;
33160;SDS011;19522;45.656;11.302;2022-11-15T15:12:20;13.10;;;9.98;;
33160;SDS011;19522;45.656;11.302;2022-11-15T15:14:47;12.50;;;9.25;;
33160;SDS011;19522;45.656;11.302;2022-11-15T15:17:14;12.55;;;10.25;;
33160;SDS011;19522;45.656;11.302;2022-11-15T15:19:40;12.32;;;10.25;;
33160;SDS011;19522;45.656;11.302;2022-11-15T15:22:11;10.68;;;8.95;;
33160;SDS011;19522;45.656;11.302;2022-11-15T15:24:39;11.20;;;8.52;;
33160;SDS011;19522;45.656;11.302;2022-11-15T15:27:08;11.30;;;8.68;;
33160;SDS011;19522;45.656;11.302;2022-11-15T15:29:33;11.15;;;8.95;;
33160;SDS011;19522;45.656;11.302;2022-11-15T15:31:59;11.20;;;8.90;;
33160;SDS011;19522;45.656;11.302;2022-11-15T15:34:24;11.48;;;9.57;;
33160;SDS011;19522;45.656;11.302;2022-11-15T15:37:05;13.50;;;10.27;;
33160;SDS011;19522;45.656;11.302;2022-11-15T15:39:37;18.63;;;14.55;;
33160;SDS011;19522;45.656;11.302;2022-11-15T15:42:03;17.73;;;14.77;;
33160;SDS011;19522;45.656;11.302;2022-11-15T15:44:28;17.05;;;13.77;;
33160;SDS011;19522;45.656;11.302;2022-11-15T15:46:54;21.33;;;14.52;;
33160;SDS011;19522;45.656;11.302;2022-11-15T15:49:19;19.48;;;13.60;;
33160;SDS011;19522;45.656;11.302;2022-11-15T15:51:45;16.67;;;13.55;;
33160;SDS011;19522;45.656;11.302;2022-11-15T15:54:13;22.77;;;16.10;;
33160;SDS011;19522;45.656;11.302;2022-11-15T15:56:39;18.77;;;13.32;;
33160;SDS011;19522;45.656;11.302;2022-11-15T15:59:04;17.40;;;13.20;;
33160;SDS011;19522;45.656;11.302;2022-11-15T16:01:30;16.77;;;12.65;;
33160;SDS011;19522;45.656;11.302;2022-11-15T16:03:55;17.83;;;14.27;;
33160;SDS011;19522;45.656;11.302;2022-11-15T16:06:39;21.23;;;16.90;;
33160;SDS011;19522;45.656;11.302;2022-11-15T16:09:12;20.05;;;15.57;;
33160;SDS011;19522;45.656;11.302;2022-11-15T16:11:41;20.30;;;16.60;;
33160;SDS011;19522;45.656;11.302;2022-11-15T16:14:09;23.25;;;16.33;;
33160;SDS011;19522;45.656;11.302;2022-11-15T16:16:35;20.83;;;15.98;;
33160;SDS011;19522;45.656;11.302;2022-11-15T16:19:01;22.10;;;16.27;;
33160;SDS011;19522;45.656;11.302;2022-11-15T16:21:27;24.95;;;18.27;;
33160;SDS011;19522;45.656;11.302;2022-11-15T16:23:53;23.30;;;17.88;;
33160;SDS011;19522;45.656;11.302;2022-11-15T16:26:23;20.30;;;16.02;;
33160;SDS011;19522;45.656;11.302;2022-11-15T16:28:51;24.70;;;18.85;;
33160;SDS011;19522;45.656;11.302;2022-11-15T16:31:20;23.95;;;17.88;;
33160;SDS011;19522;45.656;11.302;2022-11-15T16:33:48;21.10;;;16.35;;
33160;SDS011;19522;45.656;11.302;2022-11-15T16:36:24;21.13;;;16.45;;
33160;SDS011;19522;45.656;11.302;2022-11-15T16:38:54;22.67;;;18.10;;
33160;SDS011;19522;45.656;11.302;2022-11-15T16:41:19;22.55;;;17.95;;
33160;SDS011;19522;45.656;11.302;2022-11-15T16:43:45;21.27;;;17.45;;
33160;SDS011;19522;45.656;11.302;2022-11-15T16:46:24;19.83;;;17.23;;
33160;SDS011;19522;45.656;11.302;2022-11-15T16:48:51;23.20;;;18.40;;
33160;SDS011;19522;45.656;11.302;2022-11-15T16:51:17;23.35;;;17.95;;